createdAt,value
2023-04-19T00:01:52.280Z,101772.53
2023-04-19T00:05:59.265Z,101763.53
2023-04-19T00:10:00.580Z,101771.19
2023-04-19T00:14:01.890Z,101760.78
2023-04-19T00:18:03.584Z,101765.22
2023-04-19T00:22:05.007Z,101765.44
2023-04-19T00:26:06.390Z,101761.09
2023-04-19T00:30:08.230Z,101762.41
2023-04-19T00:34:09.544Z,101754.63
2023-04-19T00:38:11.232Z,101759.22
2023-04-19T00:42:12.569Z,101758.16
2023-04-19T00:46:15.856Z,101748.34
2023-04-19T00:50:17.481Z,101757.41
2023-04-19T00:54:19.257Z,101753.16
2023-04-19T00:58:20.755Z,101745.22
2023-04-19T01:02:22.356Z,101746.59
2023-04-19T01:06:23.914Z,101735.13
2023-04-19T01:10:25.410Z,101736.25
2023-04-19T01:14:26.740Z,101736.13
2023-04-19T01:18:32.879Z,101734.56
2023-04-19T01:22:37.974Z,101741.31
2023-04-19T01:26:39.363Z,101735.88
2023-04-19T01:30:40.676Z,101730.47
2023-04-19T01:34:46.113Z,101723.06
2023-04-19T01:38:47.825Z,101728.88
2023-04-19T01:42:49.655Z,101722.63
2023-04-19T01:46:51.075Z,101717.19
2023-04-19T01:50:52.881Z,101715.94
2023-04-19T01:54:54.450Z,101716.06
2023-04-19T01:58:57.108Z,101705.75
2023-04-19T02:02:59.049Z,101709.00
2023-04-19T02:07:00.551Z,101704.06
2023-04-19T02:11:06.937Z,101711.56
2023-04-19T02:15:08.820Z,101713.13
2023-04-19T02:19:10.228Z,101713.31
2023-04-19T02:23:12.420Z,101710.22
2023-04-19T02:27:14.267Z,101699.72
2023-04-19T02:31:15.820Z,101720.19
2023-04-19T02:35:26.470Z,101711.47
2023-04-19T02:39:28.146Z,101706.91
2023-04-19T02:43:29.838Z,101700.94
2023-04-19T02:47:31.302Z,101708.13
2023-04-19T02:51:32.909Z,101717.06
2023-04-19T02:55:34.475Z,101709.56
2023-04-19T02:59:35.860Z,101706.91
2023-04-19T03:03:37.309Z,101708.34
2023-04-19T03:07:38.899Z,101706.88
2023-04-19T03:11:40.204Z,101707.63
2023-04-19T03:15:41.576Z,101693.63
2023-04-19T03:19:43.096Z,101690.47
2023-04-19T03:23:44.497Z,101697.13
2023-04-19T03:27:47.928Z,101687.66
2023-04-19T03:31:50.004Z,101685.88
2023-04-19T03:35:51.404Z,101686.22
2023-04-19T03:39:52.787Z,101686.31
2023-04-19T03:43:54.136Z,101686.59
2023-04-19T03:47:55.484Z,101693.22
2023-04-19T03:51:56.858Z,101683.06
2023-04-19T03:55:58.210Z,101677.91
2023-04-19T04:00:00.235Z,101685.78
2023-04-19T04:04:05.163Z,101681.63
2023-04-19T04:08:06.868Z,101681.34
2023-04-19T04:12:08.189Z,101676.31
2023-04-19T04:16:09.607Z,101681.03
2023-04-19T04:20:13.292Z,101688.53
2023-04-19T04:24:14.925Z,101683.38
2023-04-19T04:28:16.340Z,101680.13
2023-04-19T04:32:18.208Z,101684.78
2023-04-19T04:36:20.460Z,101683.06
2023-04-19T04:40:22.447Z,101678.06
2023-04-19T04:44:24.356Z,101678.88
2023-04-19T04:48:26.100Z,101685.72
2023-04-19T04:52:28.457Z,101678.41
2023-04-19T04:56:30.861Z,101685.31
2023-04-19T05:00:32.586Z,101685.44
2023-04-19T05:04:33.914Z,101683.00
2023-04-19T05:08:35.325Z,101686.88
2023-04-19T05:12:37.937Z,101679.41
2023-04-19T05:16:40.004Z,101686.16
2023-04-19T05:20:41.586Z,101683.94
2023-04-19T05:24:42.971Z,101668.31
2023-04-19T05:28:45.022Z,101681.59
2023-04-19T05:32:46.935Z,101671.63
2023-04-19T05:36:48.314Z,101668.19
2023-04-19T05:40:49.733Z,101664.78
2023-04-19T05:44:51.106Z,101667.47
2023-04-19T05:48:52.521Z,101662.22
2023-04-19T05:52:53.867Z,101658.81
2023-04-19T05:56:55.250Z,101668.56
2023-04-19T06:00:59.932Z,101673.38
2023-04-19T06:05:09.392Z,101680.56
2023-04-19T06:09:13.583Z,101671.84
2023-04-19T06:13:16.106Z,101670.69
2023-04-19T06:17:17.451Z,101676.28
2023-04-19T06:21:18.827Z,101674.91
2023-04-19T06:25:20.722Z,101665.44
2023-04-19T06:29:23.709Z,101672.91
2023-04-19T06:33:25.033Z,101667.72
2023-04-19T06:37:26.514Z,101667.13
2023-04-19T06:41:27.912Z,101666.44
2023-04-19T06:45:29.313Z,101667.91
2023-04-19T06:49:31.399Z,101672.44
2023-04-19T06:53:32.872Z,101671.94
2023-04-19T06:57:34.288Z,101669.84
2023-04-19T07:01:35.984Z,101666.22
2023-04-19T07:05:37.447Z,101665.00
2023-04-19T07:09:38.864Z,101666.81
2023-04-19T07:13:40.346Z,101652.19
2023-04-19T07:17:41.759Z,101662.06
2023-04-19T07:21:43.084Z,101645.94
2023-04-19T07:25:44.537Z,101641.38
2023-04-19T07:29:46.443Z,101638.84
2023-04-19T07:33:47.992Z,101632.00
2023-04-19T07:37:49.366Z,101634.41
2023-04-19T07:41:50.807Z,101625.28
2023-04-19T07:45:52.978Z,101634.50
2023-04-19T07:49:55.749Z,101629.66
2023-04-19T07:53:57.214Z,101629.97
2023-04-19T07:57:58.568Z,101623.13
2023-04-19T08:02:00.226Z,101626.84
2023-04-19T08:06:03.080Z,101618.91
2023-04-19T08:10:08.587Z,101617.75
2023-04-19T08:14:18.592Z,101626.78
2023-04-19T08:18:32.007Z,101630.31
2023-04-19T08:22:33.503Z,101622.22
2023-04-19T08:26:34.848Z,101615.03
2023-04-19T08:30:36.140Z,101616.56
2023-04-19T08:34:39.162Z,101601.44
2023-04-19T08:38:44.519Z,101594.63
2023-04-19T08:42:47.964Z,101595.88
2023-04-19T08:46:51.920Z,101604.56
2023-04-19T08:51:04.490Z,101603.44
2023-04-19T08:55:09.016Z,101592.00
2023-04-19T08:59:18.159Z,101581.81
2023-04-19T09:03:20.589Z,101587.59
2023-04-19T09:07:26.630Z,101581.69
2023-04-19T09:11:40.244Z,101568.03
2023-04-19T09:15:43.676Z,101584.75
2023-04-19T09:19:49.635Z,101567.47
2023-04-19T09:23:51.265Z,101564.16
2023-04-19T09:27:52.590Z,101566.38
2023-04-19T09:32:00.034Z,101551.19
2023-04-19T09:36:02.306Z,101562.84
2023-04-19T09:40:26.838Z,101555.00
2023-04-19T09:48:32.775Z,101560.16
2023-04-19T09:52:35.031Z,101558.66
2023-04-19T09:56:36.943Z,101550.22
2023-04-19T10:00:47.748Z,101553.16
2023-04-19T10:09:02.452Z,101542.13
2023-04-19T10:13:19.303Z,101535.75
2023-04-19T10:17:23.398Z,101536.38
2023-04-19T10:21:27.328Z,101546.00
2023-04-19T10:25:30.026Z,101535.75
2023-04-19T10:29:59.667Z,101531.31
2023-04-19T10:34:01.038Z,101522.16
2023-04-19T10:38:09.431Z,101506.25
2023-04-19T10:42:10.959Z,101512.31
2023-04-19T10:46:36.517Z,101509.84
2023-04-19T10:51:16.690Z,101500.50
2023-04-19T10:55:20.009Z,101493.88
2023-04-19T10:59:22.188Z,101507.56
2023-04-19T11:03:51.547Z,101482.84
2023-04-19T11:07:53.126Z,101495.25
2023-04-19T11:11:58.848Z,101480.94
2023-04-19T11:16:00.319Z,101486.41
2023-04-19T11:20:08.576Z,101473.97
2023-04-19T11:24:10.911Z,101468.78
2023-04-19T11:28:17.052Z,101462.38
2023-04-19T11:32:21.500Z,101472.88
2023-04-19T11:36:22.902Z,101475.78
2023-04-19T11:40:28.512Z,101465.97
2023-04-19T11:44:30.805Z,101481.84
2023-04-19T11:48:32.758Z,101452.66
2023-04-19T11:52:35.466Z,101455.56
2023-04-19T11:56:36.970Z,101448.38
2023-04-19T12:00:38.524Z,101436.78
2023-04-19T12:04:41.010Z,101455.56
2023-04-19T12:08:47.574Z,101443.00
2023-04-19T12:12:49.004Z,101442.72
2023-04-19T12:17:13.638Z,101445.78
2023-04-19T12:21:33.504Z,101445.19
2023-04-19T12:25:34.944Z,101454.09
2023-04-19T12:29:36.302Z,101448.66
2023-04-19T12:33:37.686Z,101446.28
2023-04-19T12:37:38.990Z,101441.06
2023-04-19T12:41:40.438Z,101444.66
2023-04-19T12:45:41.867Z,101437.63
2023-04-19T12:49:43.217Z,101441.38
2023-04-19T12:53:49.207Z,101440.50
2023-04-19T12:57:51.039Z,101437.81
2023-04-19T13:01:52.434Z,101425.38
2023-04-19T13:05:53.811Z,101431.56
2023-04-19T13:09:56.724Z,101415.78
2023-04-19T13:13:58.497Z,101399.69
2023-04-19T13:18:00.009Z,101395.06
2023-04-19T13:22:01.439Z,101396.47
2023-04-19T13:26:02.926Z,101397.81
2023-04-19T13:30:04.669Z,101392.91
2023-04-19T13:34:06.033Z,101384.53
2023-04-19T13:38:07.474Z,101378.56
2023-04-19T13:42:09.726Z,101369.41
2023-04-19T13:46:11.511Z,101367.28
2023-04-19T13:50:13.670Z,101368.16
2023-04-19T13:54:17.560Z,101372.44
2023-04-19T13:58:19.486Z,101363.25
2023-04-19T14:02:21.293Z,101357.78
2023-04-19T14:06:22.963Z,101344.00
2023-04-19T14:10:24.491Z,101349.25
2023-04-19T14:14:26.330Z,101343.00
2023-04-19T14:18:27.687Z,101348.66
2023-04-19T14:22:29.164Z,101345.84
2023-04-19T14:26:30.563Z,101331.53
2023-04-19T14:30:32.096Z,101342.03
2023-04-19T14:34:33.520Z,101324.41
2023-04-19T14:38:37.596Z,101325.50
2023-04-19T14:42:40.741Z,101328.19
2023-04-19T14:46:42.140Z,101290.81
2023-04-19T14:50:43.448Z,101335.75
2023-04-19T14:54:45.499Z,101311.53
2023-04-19T14:58:46.906Z,101317.13
2023-04-19T15:02:48.303Z,101337.31
2023-04-19T15:06:49.703Z,101326.72
2023-04-19T15:10:51.020Z,101327.91
2023-04-19T15:14:52.368Z,101319.78
2023-04-19T15:18:53.804Z,101322.41
2023-04-19T15:22:56.898Z,101314.56
2023-04-19T15:26:58.740Z,101321.19
2023-04-19T15:31:02.361Z,101298.47
2023-04-19T15:35:04.043Z,101316.84
2023-04-19T15:39:05.430Z,101301.94
2023-04-19T15:43:06.757Z,101310.03
2023-04-19T15:47:08.091Z,101317.13
2023-04-19T15:51:10.862Z,101309.47
2023-04-19T15:55:12.259Z,101312.72
2023-04-19T15:59:13.573Z,101315.00
2023-04-19T16:03:15.104Z,101302.38
2023-04-19T16:07:16.525Z,101304.91
2023-04-19T16:11:17.885Z,101302.56
2023-04-19T16:15:19.283Z,101300.00
2023-04-19T16:19:23.067Z,101303.56
2023-04-19T16:23:24.739Z,101307.84
2023-04-19T16:27:27.069Z,101304.59
2023-04-19T16:31:28.531Z,101302.41
2023-04-19T16:35:30.297Z,101295.28
2023-04-19T16:39:31.628Z,101304.66
2023-04-19T16:43:33.009Z,101309.47
2023-04-19T16:47:35.661Z,101302.94
2023-04-19T16:51:37.029Z,101309.69
2023-04-19T16:55:38.561Z,101301.91
2023-04-19T16:59:39.929Z,101293.78
2023-04-19T17:03:41.748Z,101293.31
2023-04-19T17:07:43.668Z,101283.16
2023-04-19T17:11:45.023Z,101289.91
2023-04-19T17:15:46.474Z,101289.28
2023-04-19T17:19:47.880Z,101284.63
2023-04-19T17:23:49.289Z,101292.72
2023-04-19T17:27:50.994Z,101285.84
2023-04-19T17:31:52.467Z,101284.31
2023-04-19T17:35:53.921Z,101272.97
2023-04-19T17:39:55.485Z,101281.97
2023-04-19T17:43:57.180Z,101275.44
2023-04-19T17:47:58.517Z,101289.63
2023-04-19T17:51:59.909Z,101284.84
2023-04-19T17:56:01.308Z,101272.81
2023-04-19T18:00:06.721Z,101280.06
2023-04-19T18:04:08.438Z,101291.28
2023-04-19T18:08:10.027Z,101292.31
2023-04-19T18:12:11.532Z,101288.16
2023-04-19T18:16:13.458Z,101288.59
2023-04-19T18:20:15.673Z,101294.16
2023-04-19T18:24:17.058Z,101296.28
2023-04-19T18:28:18.505Z,101311.06
2023-04-19T18:32:21.866Z,101305.25
2023-04-19T18:36:23.948Z,101307.03
2023-04-19T18:40:25.309Z,101305.22
2023-04-19T18:44:49.554Z,101304.91
2023-04-19T18:48:48.053Z,101320.94
2023-04-19T18:52:49.430Z,101309.97
2023-04-19T18:57:19.027Z,101317.13
2023-04-19T19:01:13.759Z,101317.59
2023-04-19T19:05:16.132Z,101334.47
2023-04-19T19:09:18.055Z,101344.16
2023-04-19T19:13:19.971Z,101341.88
2023-04-19T19:17:21.423Z,101341.22
2023-04-19T19:21:23.069Z,101333.00
2023-04-19T19:25:24.750Z,101351.72
2023-04-19T19:29:29.131Z,101352.63
2023-04-19T19:33:32.008Z,101359.53
2023-04-19T19:37:38.266Z,101367.56
2023-04-19T19:42:04.607Z,101355.47
2023-04-19T19:46:03.614Z,101352.63
2023-04-19T19:50:48.707Z,101353.13
2023-04-19T19:54:28.071Z,101353.47
2023-04-19T19:58:48.386Z,101365.19
2023-04-19T20:02:55.809Z,101360.66
2023-04-19T20:07:28.495Z,101373.31
2023-04-19T20:11:19.573Z,101368.88
2023-04-19T20:15:22.261Z,101369.22
2023-04-19T20:19:26.237Z,101381.34
2023-04-19T20:23:27.576Z,101372.00
2023-04-19T20:27:28.940Z,101380.47
2023-04-19T20:31:30.353Z,101379.47
2023-04-19T20:35:34.429Z,101377.72
2023-04-19T20:39:35.811Z,101374.66
2023-04-19T20:43:37.201Z,101377.19
2023-04-19T20:47:38.775Z,101379.66
2023-04-19T20:51:40.212Z,101378.38
2023-04-19T20:55:43.294Z,101388.72
2023-04-19T20:59:44.991Z,101384.81
2023-04-19T21:03:46.976Z,101383.41
2023-04-19T21:07:48.574Z,101376.06
2023-04-19T21:11:49.982Z,101385.25
2023-04-19T21:15:51.377Z,101383.56
2023-04-19T21:19:52.791Z,101384.84
2023-04-19T21:23:54.177Z,101378.22
2023-04-19T21:27:55.567Z,101379.13
2023-04-19T21:31:56.951Z,101373.59
2023-04-19T21:35:58.299Z,101376.91
2023-04-19T21:39:59.689Z,101368.00
2023-04-19T21:44:01.168Z,101362.75
2023-04-19T21:48:02.724Z,101360.84
2023-04-19T21:52:07.058Z,101358.06
2023-04-19T21:56:08.877Z,101364.19
2023-04-19T22:00:13.700Z,101359.63
2023-04-19T22:04:16.118Z,101359.13
2023-04-19T22:08:17.909Z,101369.19
2023-04-19T22:12:19.739Z,101361.84
2023-04-19T22:16:28.225Z,101355.81
2023-04-19T22:20:31.998Z,101349.09
2023-04-19T22:24:33.837Z,101343.38
2023-04-19T22:28:36.361Z,101338.06
2023-04-19T22:32:37.813Z,101341.94
2023-04-19T22:36:39.255Z,101329.47
2023-04-19T22:40:40.806Z,101324.66
2023-04-19T22:44:42.167Z,101323.59
2023-04-19T22:48:43.756Z,101316.31
2023-04-19T22:52:45.682Z,101317.06
2023-04-19T22:56:47.188Z,101310.78
2023-04-19T23:00:50.168Z,101316.25
2023-04-19T23:04:52.057Z,101309.03
2023-04-19T23:08:53.625Z,101293.91
2023-04-19T23:12:56.190Z,101299.44
2023-04-19T23:16:57.609Z,101289.38
2023-04-19T23:20:59.334Z,101286.53
2023-04-19T23:25:00.675Z,101284.16
2023-04-19T23:29:02.009Z,101274.41
2023-04-19T23:33:03.565Z,101270.28
2023-04-19T23:37:05.090Z,101257.44
2023-04-19T23:41:06.679Z,101264.25
2023-04-19T23:45:10.533Z,101258.13
2023-04-19T23:49:12.464Z,101254.00
2023-04-19T23:53:14.348Z,101236.41
2023-04-19T23:57:15.824Z,101232.13
